ADDS METAR Data INFO
IDs: Format: Raw Decoded Include TAF

Data at: 0847 UTC 27 Jun 2017

KCYS 270832Z AUTO 20013KT 9SM BKN007 14/12 A3010 RMK AO2 T01390122
KCYS 270753Z AUTO 19011KT 10SM FEW008 14/12 A3012 RMK AO2 SLP111 T01390122
KCYS 270653Z AUTO 17013KT 10SM CLR 14/12 A3014 RMK AO2 SLP123 T01440122 402780100
KCYS 270640Z AUTO 18014G19KT 10SM FEW009 14/13 A3015 RMK AO2 T01440128
KCYS 270553Z AUTO 16014G25KT 10SM CLR 16/13 A3017 RMK AO2 SLP131 T01560128 10272 20156 50002
KCYS 270453Z AUTO 15015G22KT 10SM CLR 17/12 A3018 RMK AO2 SLP134 T01720117
KCYS 270353Z AUTO 15015G20KT 10SM CLR 19/11 A3018 RMK AO2 SLP132 T01890111
KCYS 270253Z 13013KT 10SM CLR 21/08 A3016 RMK AO2 SLP130 T02110083 55001
KCYS 270153Z 13015KT 10SM CLR 23/07 A3016 RMK AO2 SLP131 T02330072
KCYS 270053Z 13012KT 10SM CLR 26/03 A3016 RMK AO2 SLP134 T02610033
KCYS 262353Z 11011G15KT 10SM CLR 27/04 A3017 RMK AO2 SLP136 T02720039 10278 20244 57015
KCYS 262253Z 13011G17KT 10SM CLR 27/04 A3019 RMK AO2 SLP142 T02720044
KCYS 262153Z 10009KT 10SM CLR 28/04 A3021 RMK AO2 SLP145 T02780044
KCYS 262053Z 17008KT 10SM CLR 27/04 A3022 RMK AO2 SLP151 T02720039 58017
KCYS 261953Z 10SM CLR 27/04 A3024 RMK AO2 SLP159 T02670039
KCYS 261853Z 00000KT 10SM CLR 26/04 A3027 RMK AO2 SLP168 T02560039
KCYS 261753Z 07007KT 10SM CLR 25/04 A3028 RMK AO2 SLP176 T02500044 10250 20100 58012
KCYS 261653Z VRB05KT 10SM CLR 23/06 A3030 RMK AO2 SLP185 T02280061
KCYS 261553Z 05006KT 10SM CLR 22/07 A3031 RMK AO2 SLP189 T02170072
KCYS 261453Z 05006KT 10SM CLR 19/06 A3032 RMK AO2 SLP194 T01890061 58001
KCYS 261353Z VRB04KT 10SM CLR 16/07 A3033 RMK AO2 SLP198 T01560072
KCYS 261253Z 29007KT 10SM CLR 12/07 A3033 RMK AO2 SLP207 T01170067
KCYS 261153Z 30004KT 8SM CLR 11/08 A3033 RMK AO2 SLP205 T01060078 10128 20100 53002
KCYS 261053Z AUTO 28008KT 7SM CLR 11/09 A3031 RMK AO2 SLP200 T01060089
KCYS 260953Z AUTO 28006KT 6SM BR CLR 12/10 A3031 RMK AO2 SLP196 T01170100
KCYS 260853Z AUTO 25007KT 6SM BR CLR 12/11 A3032 RMK AO2 SLP198 T01220111 58009
KCYS 260753Z AUTO 22009KT 5SM BR SCT003 12/11 A3034 RMK AO2 SLP209 T01220111
KCYS 260711Z AUTO 21012KT 7SM BKN004 13/11 A3035 RMK AO2 T01280111
KCYS 260703Z AUTO 21011KT 7SM FEW005 12/11 A3035 RMK AO2 T01220111
KCYS 260653Z AUTO 21011KT 8SM CLR 13/11 A3035 RMK AO2 SLP214 T01280111 402170089
KCYS 260553Z AUTO 20010KT 10SM CLR 13/11 A3035 RMK AO2 SLP218 T01280106 10217 20128 50004
KCYS 260453Z AUTO 20006KT 10SM CLR 13/09 A3036 RMK AO2 SLP222 T01330089
KCYS 260353Z AUTO 22006KT 10SM CLR 15/09 A3036 RMK AO2 SLP218 T01500089
KCYS 260253Z 17007KT 10SM CLR 17/09 A3034 RMK AO2 SLP213 T01670089 53002
KCYS 260153Z 15007KT 10SM CLR 18/08 A3033 RMK AO2 SLP207 T01830083
KCYS 260053Z 13007KT 10SM CLR 19/08 A3033 RMK AO2 SLP210 T01940083
KCYS 252353Z 10SM FEW050 21/09 A3033 RMK AO2 SLP208 T02060089 10211 20156 56008
KCYS 252253Z VRB04KT 10SM FEW048 20/08 A3033 RMK AO2 SLP207 T02000083
KCYS 252153Z 11010KT 10SM FEW041 20/08 A3034 RMK AO2 SLP208 T02000083
KCYS 252053Z 10009KT 10SM BKN038 21/09 A3036 RMK AO2 SLP213 T02060089 56013


Page loaded:  08:47 UTC  |   01:47 AM Pacific  |   02:47 AM Mountain  |   03:47 AM Central  |   04:47 AM Eastern

 

ADVISORIES

FORECASTS

FORECASTS

OBSERVATIONS

USER TOOLS

ABOUT US